CDT,Max TemperatureF,Mean TemperatureF,Min TemperatureF,Max Dew PointF,MeanDew PointF,Min DewpointF,Max Humidity, Mean Humidity, Min Humidity, Max Sea Level PressureIn, Mean Sea Level PressureIn, Min Sea Level PressureIn, Max VisibilityMiles, Mean VisibilityMiles, Min VisibilityMiles, Max Wind SpeedMPH, Mean Wind SpeedMPH, Max Gust SpeedMPH,PrecipitationIn, CloudCover, Events, WindDirDegrees
2010-10-1,90,77,64,69,64,60,90,70,39,30.02,29.97,29.94,10,9,6,9,6,,0.00,0,,8
2010-10-2,86,72,59,66,55,46,93,62,26,30.07,30.02,29.97,10,10,6,12,6,,0.00,0,,10
2010-10-3,82,70,57,58,54,51,87,65,40,30.20,30.13,30.06,10,10,10,15,8,,0.00,0,,11
2010-10-4,79,66,54,53,50,45,86,60,33,30.28,30.22,30.19,10,10,10,17,8,24,0.00,0,,46
2010-10-5,81,67,54,55,50,43,86,62,30,30.31,30.26,30.22,10,10,9,15,6,20,0.00,0,,56
2010-10-6,82,66,51,55,49,39,92,62,22,30.31,30.25,30.19,10,10,5,10,5,,0.00,0,,37
2010-10-7,84,68,53,58,52,41,93,65,23,30.27,30.20,30.14,10,10,6,9,4,,0.00,0,,321
2010-10-8,80,67,54,61,54,47,93,67,31,30.20,30.14,30.09,10,9,5,9,3,,0.00,0,,174
2010-10-9,81,69,57,65,61,55,93,76,54,30.13,30.08,30.03,10,8,3,9,4,,0.01,0,,122
2010-10-10,84,73,64,69,66,62,93,77,58,30.03,29.97,29.90,10,10,6,16,6,16,0.00,0,,146
2010-10-11,84,80,72,72,70,68,93,74,58,29.94,29.90,29.84,10,10,9,17,8,22,0.00,0,,191
2010-10-12,90,78,66,75,68,56,100,82,45,30.08,29.98,29.92,10,7,0,10,2,,0.00,2,Fog,286
2010-10-13,87,72,57,58,56,53,89,60,32,30.19,30.13,30.08,10,9,7,20,8,24,0.00,0,,340
2010-10-14,82,70,59,57,51,42,87,57,25,30.27,30.20,30.13,9,8,6,15,9,21,0.00,0,,348
2010-10-15,82,65,51,59,50,45,83,60,30,30.19,30.13,30.08,9,7,5,10,6,,0.00,0,,295
2010-10-16,82,69,57,64,60,55,93,74,47,30.17,30.12,30.09,8,6,4,10,5,,0.00,0,,79
2010-10-17,81,72,64,71,67,63,93,84,66,30.14,30.08,30.02,10,8,4,16,7,22,0.07,1,Rain,114
2010-10-18,82,75,69,70,66,63,91,74,56,30.03,29.98,29.92,10,10,7,13,6,,0.01,0,,173
2010-10-19,84,74,66,69,67,65,93,76,56,30.01,29.96,29.92,10,9,7,13,7,,0.00,0,,155
2010-10-20,82,74,66,70,68,64,96,79,60,30.07,30.01,29.97,10,8,2,13,5,,0.00,0,,174
2010-10-21,84,74,66,72,69,64,96,77,60,30.06,30.00,29.96,10,9,4,16,8,23,0.00,0,,158
2010-10-22,84,80,77,71,70,69,82,73,61,30.02,29.97,29.94,10,10,10,22,14,30,0.00,0,,155
2010-10-23,84,80,77,72,71,69,79,73,63,29.99,29.95,29.91,10,10,9,22,15,30,0.00,0,,154
2010-10-24,84,80,77,74,71,69,84,77,63,29.98,29.91,29.84,10,10,10,16,11,22,0.00,0,,182
2010-10-25,84,80,78,74,73,72,84,79,69,29.84,29.72,29.60,10,8,6,23,15,32,0.00,0,,191
2010-10-26,86,82,79,77,74,72,94,79,65,29.78,29.69,29.60,10,9,6,22,16,32,0.00,0,,195
2010-10-27,87,82,78,78,76,75,97,86,70,30.05,29.89,29.78,9,6,2,10,8,,0.00,0,,166
2010-10-28,84,68,55,77,52,21,100,60,10,30.37,30.18,30.05,10,6,0,29,8,38,0.00,2,Fog,2
2010-10-29,77,60,44,48,38,28,80,48,18,30.39,30.31,30.23,10,10,8,14,8,,0.00,0,,351
2010-10-30,75,60,46,57,48,40,86,63,34,30.21,30.13,30.04,10,9,6,12,5,,0.00,0,,182
2010-10-31,81,70,59,74,65,56,94,80,61,30.03,29.99,29.94,10,8,5,9,4,,0.00,0,,174